createdAt,value
2023-05-17T00:00:07.179Z,98534.97
2023-05-17T00:02:12.056Z,98542.78
2023-05-17T00:04:17.024Z,98538.59
2023-05-17T00:06:22.086Z,98539.56
2023-05-17T00:08:27.119Z,98536.16
2023-05-17T00:10:32.068Z,98533.63
2023-05-17T00:12:40.862Z,98542.50
2023-05-17T00:14:45.788Z,98541.00
2023-05-17T00:16:50.790Z,98541.31
2023-05-17T00:18:55.946Z,98538.69
2023-05-17T00:21:00.717Z,98554.44
2023-05-17T00:23:05.977Z,98548.41
2023-05-17T00:25:10.944Z,98547.59
2023-05-17T00:27:15.868Z,98554.78
2023-05-17T00:29:23.452Z,98555.84
2023-05-17T00:31:28.576Z,98561.13
2023-05-17T00:33:33.550Z,98562.84
2023-05-17T00:35:38.580Z,98557.72
2023-05-17T00:37:47.899Z,98559.56
2023-05-17T00:39:53.291Z,98559.66
2023-05-17T00:41:57.996Z,98560.66
2023-05-17T00:44:03.062Z,98564.19
2023-05-17T00:46:10.723Z,98560.44
2023-05-17T00:48:15.828Z,98559.41
2023-05-17T00:50:21.233Z,98562.81
2023-05-17T00:52:28.190Z,98557.56
2023-05-17T00:54:33.385Z,98560.25
2023-05-17T00:56:39.160Z,98565.56
2023-05-17T00:58:44.229Z,98559.41
2023-05-17T01:00:50.176Z,98570.66
2023-05-17T01:02:57.751Z,98571.47
2023-05-17T01:05:03.185Z,98557.63
2023-05-17T01:07:09.982Z,98564.72
2023-05-17T01:09:16.830Z,98574.41
2023-05-17T01:11:31.200Z,98565.88
2023-05-17T01:13:41.283Z,98564.22
2023-05-17T01:15:51.071Z,98573.72
2023-05-17T01:18:11.336Z,98570.94
2023-05-17T01:20:24.118Z,98576.16
2023-05-17T01:22:43.258Z,98583.13
2023-05-17T01:24:56.048Z,98578.81
2023-05-17T01:27:07.885Z,98580.66
2023-05-17T01:29:13.164Z,98577.28
2023-05-17T01:31:18.765Z,98588.44
2023-05-17T01:33:24.967Z,98588.44
2023-05-17T01:35:30.513Z,98588.50
2023-05-17T01:37:35.690Z,98596.22
2023-05-17T01:39:40.675Z,98593.69
2023-05-17T01:41:49.769Z,98598.00
2023-05-17T01:44:03.968Z,98595.59
2023-05-17T01:46:15.633Z,98590.28
2023-05-17T01:48:24.871Z,98595.44
2023-05-17T01:50:34.026Z,98595.66
2023-05-17T01:52:49.308Z,98594.75
2023-05-17T01:55:08.442Z,98596.50
2023-05-17T01:57:16.131Z,98599.94
2023-05-17T01:59:26.175Z,98601.59
2023-05-17T02:01:33.556Z,98604.38
2023-05-17T02:03:38.852Z,98602.56
2023-05-17T02:05:43.880Z,98606.28
2023-05-17T02:07:48.808Z,98618.78
2023-05-17T02:09:54.426Z,98611.25
2023-05-17T02:11:59.518Z,98608.84
2023-05-17T02:14:04.500Z,98614.22
2023-05-17T02:16:15.141Z,98610.25
2023-05-17T02:18:22.233Z,98614.72
2023-05-17T02:20:27.658Z,98620.00
2023-05-17T02:22:32.341Z,98626.19
2023-05-17T02:24:38.961Z,98615.03
2023-05-17T02:26:44.121Z,98622.75
2023-05-17T02:28:49.047Z,98619.44
2023-05-17T02:30:57.269Z,98616.25
2023-05-17T02:33:04.857Z,98618.03
2023-05-17T02:35:11.021Z,98617.16
2023-05-17T02:37:16.036Z,98616.41
2023-05-17T02:39:22.621Z,98616.53
2023-05-17T02:41:27.729Z,98626.09
2023-05-17T02:43:32.690Z,98624.38
2023-05-17T02:45:37.578Z,98633.84
2023-05-17T02:47:43.659Z,98627.75
2023-05-17T02:49:51.386Z,98626.06
2023-05-17T02:51:56.793Z,98629.50
2023-05-17T02:54:01.799Z,98630.38
2023-05-17T02:56:07.326Z,98628.66
2023-05-17T02:58:12.265Z,98641.66
2023-05-17T03:00:18.360Z,98639.03
2023-05-17T03:02:23.414Z,98637.28
2023-05-17T03:04:28.439Z,98638.22
2023-05-17T03:06:36.908Z,98634.75
2023-05-17T03:08:41.899Z,98642.53
2023-05-17T03:10:46.964Z,98634.94
2023-05-17T03:12:52.445Z,98641.94
2023-05-17T03:14:59.682Z,98640.34
2023-05-17T03:17:04.695Z,98642.97
2023-05-17T03:19:12.401Z,98657.78
2023-05-17T03:21:19.782Z,98651.72
2023-05-17T03:23:28.538Z,98652.50
2023-05-17T03:25:38.356Z,98657.78
2023-05-17T03:27:43.515Z,98657.84
2023-05-17T03:29:49.537Z,98656.19
2023-05-17T03:31:54.917Z,98655.59
2023-05-17T03:34:00.653Z,98659.94
2023-05-17T03:36:06.579Z,98664.34
2023-05-17T03:38:11.599Z,98675.50
2023-05-17T03:40:19.555Z,98676.31
2023-05-17T03:42:24.635Z,98665.84
2023-05-17T03:44:29.593Z,98670.06
2023-05-17T03:46:35.572Z,98670.13
2023-05-17T03:48:40.501Z,98668.41
2023-05-17T03:50:45.876Z,98679.44
2023-05-17T03:52:51.168Z,98681.09
2023-05-17T03:54:57.001Z,98675.91
2023-05-17T03:57:04.726Z,98678.44
2023-05-17T03:59:09.902Z,98678.41
2023-05-17T04:01:14.921Z,98677.69
2023-05-17T04:03:20.413Z,98680.94
2023-05-17T04:05:26.065Z,98686.78
2023-05-17T04:07:31.277Z,98690.06
2023-05-17T04:09:37.236Z,98683.00
2023-05-17T04:11:42.661Z,98689.66
2023-05-17T04:13:51.801Z,98690.25
2023-05-17T04:15:56.871Z,98689.13
2023-05-17T04:18:01.961Z,98698.41
2023-05-17T04:20:09.264Z,98688.00
2023-05-17T04:22:14.169Z,98691.34
2023-05-17T04:24:20.564Z,98700.81
2023-05-17T04:26:27.459Z,98694.72
2023-05-17T04:28:32.675Z,98710.47
2023-05-17T04:30:45.231Z,98709.34
2023-05-17T04:32:50.582Z,98711.88
2023-05-17T04:34:57.894Z,98714.28
2023-05-17T04:37:04.028Z,98706.41
2023-05-17T04:39:12.268Z,98704.66
2023-05-17T04:41:18.040Z,98711.25
2023-05-17T04:43:23.215Z,98711.38
2023-05-17T04:45:28.415Z,98716.38
2023-05-17T04:47:37.366Z,98715.19
2023-05-17T04:49:43.485Z,98715.38
2023-05-17T04:51:48.407Z,98716.94
2023-05-17T04:53:53.596Z,98725.22
2023-05-17T04:55:59.539Z,98724.16
2023-05-17T04:58:05.545Z,98725.72
2023-05-17T05:00:12.737Z,98730.81
2023-05-17T05:02:20.199Z,98729.34
2023-05-17T05:04:28.070Z,98735.38
2023-05-17T05:06:33.586Z,98735.09
2023-05-17T05:08:38.910Z,98740.88
2023-05-17T05:10:48.128Z,98738.88
2023-05-17T05:12:54.990Z,98743.09
2023-05-17T05:15:01.559Z,98747.59
2023-05-17T05:17:07.225Z,98747.38
2023-05-17T05:19:13.029Z,98753.97
2023-05-17T05:21:20.935Z,98752.22
2023-05-17T05:23:26.129Z,98754.72
2023-05-17T05:25:31.304Z,98759.47
2023-05-17T05:27:36.994Z,98762.56
2023-05-17T05:29:42.793Z,98766.75
2023-05-17T05:31:49.277Z,98765.81
2023-05-17T05:33:55.196Z,98770.03
2023-05-17T05:36:00.735Z,98772.38
2023-05-17T05:38:08.284Z,98773.22
2023-05-17T05:40:15.350Z,98774.19
2023-05-17T05:42:20.730Z,98777.88
2023-05-17T05:44:26.012Z,98783.69
2023-05-17T05:46:32.572Z,98784.31
2023-05-17T05:48:42.235Z,98789.31
2023-05-17T05:50:48.137Z,98788.41
2023-05-17T05:52:56.268Z,98794.81
2023-05-17T05:55:12.330Z,98804.66
2023-05-17T05:57:18.107Z,98798.28
2023-05-17T05:59:23.145Z,98800.25
2023-05-17T06:01:29.085Z,98798.31
2023-05-17T06:03:34.090Z,98808.72
2023-05-17T06:05:40.732Z,98800.78
2023-05-17T06:07:46.011Z,98800.91
2023-05-17T06:09:50.958Z,98807.91
2023-05-17T06:12:01.394Z,98811.09
2023-05-17T06:14:06.343Z,98815.78
2023-05-17T06:16:11.532Z,98806.97
2023-05-17T06:18:16.432Z,98814.53
2023-05-17T06:20:21.590Z,98815.69
2023-05-17T06:22:26.602Z,98815.38
2023-05-17T06:24:33.177Z,98821.19
2023-05-17T06:26:38.460Z,98814.72
2023-05-17T06:28:46.261Z,98815.84
2023-05-17T06:30:51.258Z,98829.44
2023-05-17T06:32:56.572Z,98826.47
2023-05-17T06:35:01.841Z,98831.47
2023-05-17T06:37:07.489Z,98833.13
2023-05-17T06:39:12.387Z,98830.63
2023-05-17T06:41:17.318Z,98838.13
2023-05-17T06:43:22.311Z,98836.22
2023-05-17T06:45:29.983Z,98828.94
2023-05-17T06:47:34.982Z,98833.56
2023-05-17T06:49:42.853Z,98836.25
2023-05-17T06:51:49.068Z,98833.19
2023-05-17T06:53:54.097Z,98832.97
2023-05-17T06:55:59.775Z,98835.22
2023-05-17T06:58:04.511Z,98831.63
2023-05-17T07:00:11.884Z,98827.13
2023-05-17T07:02:19.694Z,98832.50
2023-05-17T07:04:25.065Z,98831.66
2023-05-17T07:06:30.138Z,98838.03
2023-05-17T07:08:44.210Z,98838.28
2023-05-17T07:10:49.273Z,98835.66
2023-05-17T07:12:57.313Z,98835.88
2023-05-17T07:15:02.397Z,98822.38
2023-05-17T07:17:07.832Z,98829.88
2023-05-17T07:19:15.401Z,98832.44
2023-05-17T07:21:20.512Z,98836.50
2023-05-17T07:23:25.509Z,98830.94
2023-05-17T07:25:30.760Z,98834.00
2023-05-17T07:27:38.336Z,98830.97
2023-05-17T07:29:43.785Z,98837.53
2023-05-17T07:31:48.883Z,98835.13
2023-05-17T07:33:54.000Z,98834.91
2023-05-17T07:36:01.949Z,98842.88
2023-05-17T07:38:06.916Z,98831.41
2023-05-17T07:40:13.452Z,98838.16
2023-05-17T07:42:18.417Z,98839.03
2023-05-17T07:44:23.709Z,98841.38
2023-05-17T07:46:28.984Z,98845.91
2023-05-17T07:48:33.737Z,98837.66
2023-05-17T07:50:38.950Z,98842.44
2023-05-17T07:52:46.900Z,98843.50
2023-05-17T07:54:51.817Z,98835.59
2023-05-17T07:56:57.332Z,98834.69
2023-05-17T07:59:02.494Z,98834.09
2023-05-17T08:01:07.416Z,98831.63
2023-05-17T08:03:13.159Z,98835.91
2023-05-17T08:05:19.620Z,98832.88
2023-05-17T08:07:24.567Z,98828.78
2023-05-17T08:09:32.086Z,98829.59
2023-05-17T08:11:37.954Z,98830.81
2023-05-17T08:13:44.425Z,98839.66
2023-05-17T08:15:51.554Z,98843.59
2023-05-17T08:17:57.070Z,98838.66
2023-05-17T08:20:05.123Z,98844.06
2023-05-17T08:22:10.755Z,98828.13
2023-05-17T08:24:15.991Z,98829.94
2023-05-17T08:26:23.556Z,98828.84
2023-05-17T08:28:28.686Z,98821.91
2023-05-17T08:30:33.787Z,98830.81
2023-05-17T08:32:38.731Z,98833.78
2023-05-17T08:34:43.873Z,98841.94
2023-05-17T08:36:48.726Z,98827.59
2023-05-17T08:38:54.052Z,98837.06
2023-05-17T08:41:00.098Z,98831.97
2023-05-17T08:43:09.182Z,98828.34
2023-05-17T08:45:16.843Z,98829.34
2023-05-17T08:47:30.158Z,98833.88
2023-05-17T08:49:38.258Z,98843.47
2023-05-17T08:51:44.951Z,98835.38
2023-05-17T08:53:50.809Z,98836.91
2023-05-17T08:56:02.666Z,98836.56
2023-05-17T08:58:10.857Z,98845.25
2023-05-17T09:00:19.653Z,98838.97
2023-05-17T09:02:25.100Z,98833.88
2023-05-17T09:04:31.702Z,98838.38
2023-05-17T09:06:37.433Z,98828.72
2023-05-17T09:08:42.923Z,98836.84
2023-05-17T09:10:47.869Z,98834.78
2023-05-17T09:12:53.217Z,98843.72
2023-05-17T09:15:15.898Z,98848.31
2023-05-17T09:17:22.785Z,98841.56
2023-05-17T09:19:28.273Z,98845.31
2023-05-17T09:21:34.295Z,98846.50
2023-05-17T09:23:42.314Z,98847.63
2023-05-17T09:25:51.164Z,98847.13
2023-05-17T09:27:57.161Z,98854.44
2023-05-17T09:30:04.750Z,98850.59
2023-05-17T09:32:16.699Z,98852.72
2023-05-17T09:34:23.851Z,98855.56
2023-05-17T09:36:28.796Z,98859.50
2023-05-17T09:38:33.778Z,98861.25
2023-05-17T09:40:41.744Z,98865.50
2023-05-17T09:42:51.121Z,98868.38
2023-05-17T09:45:01.957Z,98872.69
2023-05-17T09:47:09.736Z,98870.53
2023-05-17T09:49:16.350Z,98874.56
2023-05-17T09:51:21.463Z,98880.63
2023-05-17T09:53:28.472Z,98874.59
2023-05-17T09:55:33.938Z,98876.75
2023-05-17T09:57:43.512Z,98875.91
2023-05-17T09:59:49.586Z,98883.00
2023-05-17T10:01:54.705Z,98880.19
2023-05-17T10:04:02.996Z,98888.63
2023-05-17T10:06:19.618Z,98886.06
2023-05-17T10:08:33.813Z,98891.84
2023-05-17T10:10:39.600Z,98892.78
2023-05-17T10:12:44.976Z,98882.69
2023-05-17T10:14:50.359Z,98887.16
2023-05-17T10:16:56.551Z,98886.69
2023-05-17T10:19:05.393Z,98887.38
2023-05-17T10:21:10.996Z,98886.59
2023-05-17T10:23:18.274Z,98876.41
2023-05-17T10:25:24.727Z,98879.06
2023-05-17T10:27:31.012Z,98877.97
2023-05-17T10:29:37.957Z,98889.31
2023-05-17T10:31:46.358Z,98881.13
2023-05-17T10:33:53.459Z,98884.84
2023-05-17T10:36:01.772Z,98883.72
2023-05-17T10:38:06.779Z,98880.75
2023-05-17T10:40:15.144Z,98882.31
2023-05-17T10:42:22.104Z,98885.16
2023-05-17T10:44:27.804Z,98884.97
2023-05-17T10:46:33.883Z,98876.91
2023-05-17T10:48:40.084Z,98876.38
2023-05-17T10:51:00.778Z,98875.63
2023-05-17T10:53:13.198Z,98878.06
2023-05-17T10:55:22.153Z,98875.16
2023-05-17T10:57:49.794Z,98868.53
2023-05-17T11:00:00.886Z,98877.88
2023-05-17T11:02:07.391Z,98869.16
2023-05-17T11:04:24.593Z,98869.88
2023-05-17T11:06:29.750Z,98870.41
2023-05-17T11:08:37.303Z,98864.97
2023-05-17T11:10:42.385Z,98865.41
2023-05-17T11:12:54.183Z,98861.78
2023-05-17T11:14:59.566Z,98859.94
2023-05-17T11:17:15.252Z,98858.69
2023-05-17T11:19:21.822Z,98864.88
2023-05-17T11:21:32.068Z,98856.72
2023-05-17T11:23:40.194Z,98861.25
2023-05-17T11:25:45.215Z,98863.09
2023-05-17T11:27:51.916Z,98858.53
2023-05-17T11:29:58.623Z,98860.75
2023-05-17T11:32:09.029Z,98859.38
2023-05-17T11:34:14.603Z,98853.34
2023-05-17T11:36:22.473Z,98865.06
2023-05-17T11:38:33.172Z,98858.56
2023-05-17T11:40:41.296Z,98862.34
2023-05-17T11:42:46.419Z,98856.47
2023-05-17T11:44:51.225Z,98850.59
2023-05-17T11:47:04.517Z,98849.00
2023-05-17T11:49:12.088Z,98852.16
2023-05-17T11:51:21.387Z,98850.00
2023-05-17T11:53:29.750Z,98853.97
2023-05-17T11:55:34.853Z,98852.16
2023-05-17T11:57:43.252Z,98853.09
2023-05-17T11:59:48.581Z,98856.03
2023-05-17T12:01:55.182Z,98849.38
2023-05-17T12:04:00.614Z,98844.75
2023-05-17T12:06:08.358Z,98849.75
2023-05-17T12:08:14.448Z,98839.28
2023-05-17T12:10:19.569Z,98845.06
2023-05-17T12:12:24.896Z,98844.41
2023-05-17T12:14:33.445Z,98852.84
2023-05-17T12:16:39.892Z,98847.00
2023-05-17T12:18:46.702Z,98839.88
2023-05-17T12:21:01.689Z,98836.03
2023-05-17T12:23:06.788Z,98833.78
2023-05-17T12:25:25.544Z,98837.78
2023-05-17T12:27:31.667Z,98834.72
2023-05-17T12:29:39.849Z,98840.03
2023-05-17T12:31:47.636Z,98831.78
2023-05-17T12:33:53.241Z,98833.09
2023-05-17T12:35:59.501Z,98839.13
2023-05-17T12:38:05.130Z,98842.13
2023-05-17T12:40:12.390Z,98840.72
2023-05-17T12:42:18.057Z,98837.41
2023-05-17T12:44:25.958Z,98836.56
2023-05-17T12:46:35.638Z,98837.91
2023-05-17T12:48:43.180Z,98844.06
2023-05-17T12:50:51.653Z,98843.66
2023-05-17T12:52:57.246Z,98841.50
2023-05-17T12:55:02.608Z,98841.50
2023-05-17T12:57:15.515Z,98841.81
2023-05-17T12:59:21.978Z,98853.22
2023-05-17T13:01:27.053Z,98845.34
2023-05-17T13:03:36.171Z,98847.59
2023-05-17T13:05:43.810Z,98848.44
2023-05-17T13:07:49.330Z,98849.91
2023-05-17T13:09:54.589Z,98850.22
2023-05-17T13:12:01.180Z,98852.19
2023-05-17T13:14:06.158Z,98847.84
2023-05-17T13:16:11.613Z,98841.66
2023-05-17T13:18:18.383Z,98843.88
2023-05-17T13:20:26.978Z,98839.75
2023-05-17T13:22:32.075Z,98846.31
2023-05-17T13:24:38.631Z,98844.53
2023-05-17T13:26:44.573Z,98845.66
2023-05-17T13:28:49.502Z,98845.53
2023-05-17T13:30:54.602Z,98844.09
2023-05-17T13:32:59.663Z,98848.22
2023-05-17T13:35:04.917Z,98848.41
2023-05-17T13:37:13.241Z,98845.19
2023-05-17T13:39:19.894Z,98839.03
2023-05-17T13:41:25.132Z,98837.75
2023-05-17T13:43:30.086Z,98849.22
2023-05-17T13:45:35.530Z,98842.78
2023-05-17T13:47:41.231Z,98845.03
2023-05-17T13:49:46.327Z,98844.09
2023-05-17T13:51:51.284Z,98842.16
2023-05-17T13:53:58.965Z,98841.25
2023-05-17T13:56:03.914Z,98844.44
2023-05-17T13:58:08.937Z,98845.22
2023-05-17T14:00:15.422Z,98841.81
2023-05-17T14:02:20.356Z,98838.28
2023-05-17T14:04:25.732Z,98849.00
2023-05-17T14:06:30.911Z,98841.22
2023-05-17T14:08:37.399Z,98839.13
2023-05-17T14:10:45.076Z,98835.03
2023-05-17T14:12:50.038Z,98840.72
2023-05-17T14:14:55.008Z,98833.72
2023-05-17T14:17:01.723Z,98832.44
2023-05-17T14:19:06.796Z,98828.94
2023-05-17T14:21:12.193Z,98834.88
2023-05-17T14:23:17.375Z,98832.13
2023-05-17T14:25:22.136Z,98834.81
2023-05-17T14:27:29.704Z,98834.31
2023-05-17T14:29:35.242Z,98834.13
2023-05-17T14:31:40.533Z,98830.50
2023-05-17T14:33:45.585Z,98833.63
2023-05-17T14:35:51.197Z,98827.38
2023-05-17T14:37:57.154Z,98838.16
2023-05-17T14:40:06.878Z,98836.72
2023-05-17T14:42:12.311Z,98829.28
2023-05-17T14:44:19.902Z,98831.09
2023-05-17T14:46:25.069Z,98832.53
2023-05-17T14:48:31.270Z,98835.66
2023-05-17T14:50:36.976Z,98840.81
2023-05-17T14:52:42.000Z,98832.06
2023-05-17T14:54:46.781Z,98833.44
2023-05-17T14:56:52.328Z,98831.56
2023-05-17T14:58:57.833Z,98829.41
2023-05-17T15:01:06.904Z,98831.00
2023-05-17T15:03:12.411Z,98822.56
2023-05-17T15:05:17.321Z,98826.63
2023-05-17T15:07:22.558Z,98827.22
2023-05-17T15:09:28.058Z,98829.91
2023-05-17T15:11:33.949Z,98827.63
2023-05-17T15:13:38.979Z,98828.41
2023-05-17T15:15:45.633Z,98829.06
2023-05-17T15:17:53.299Z,98824.38
2023-05-17T15:19:59.128Z,98821.25
2023-05-17T15:22:04.629Z,98823.47
2023-05-17T15:24:12.428Z,98824.16
2023-05-17T15:26:18.390Z,98829.75
2023-05-17T15:28:24.059Z,98822.16
2023-05-17T15:30:29.760Z,98823.59
2023-05-17T15:32:36.887Z,98824.22
2023-05-17T15:34:45.344Z,98820.75
2023-05-17T15:36:50.530Z,98826.91
2023-05-17T15:38:55.868Z,98817.03
2023-05-17T15:41:06.118Z,98824.00
2023-05-17T15:43:11.175Z,98817.06
2023-05-17T15:45:15.968Z,98818.94
2023-05-17T15:47:23.830Z,98815.44
2023-05-17T15:49:31.280Z,98818.31
2023-05-17T15:51:39.003Z,98810.16
2023-05-17T15:53:44.116Z,98817.66
2023-05-17T15:55:51.019Z,98809.72
2023-05-17T15:57:56.135Z,98816.00
2023-05-17T16:00:01.208Z,98816.94
2023-05-17T16:02:06.003Z,98811.59
2023-05-17T16:04:11.146Z,98813.09
2023-05-17T16:06:21.664Z,98817.78
2023-05-17T16:08:29.270Z,98818.22
2023-05-17T16:10:34.344Z,98816.03
2023-05-17T16:12:39.478Z,98819.97
2023-05-17T16:14:45.160Z,98814.06
2023-05-17T16:16:50.293Z,98811.78
2023-05-17T16:18:55.632Z,98817.69
2023-05-17T16:21:02.049Z,98810.88
2023-05-17T16:23:07.395Z,98804.44
2023-05-17T16:25:15.282Z,98802.47
2023-05-17T16:27:20.683Z,98810.38
2023-05-17T16:29:25.825Z,98804.56
2023-05-17T16:31:31.009Z,98807.84
2023-05-17T16:33:38.495Z,98815.59
2023-05-17T16:35:43.712Z,98805.97
2023-05-17T16:37:48.592Z,98805.97
2023-05-17T16:39:54.532Z,98803.84
2023-05-17T16:42:02.097Z,98808.25
2023-05-17T16:44:07.214Z,98808.78
2023-05-17T16:46:11.950Z,98800.97
2023-05-17T16:48:17.845Z,98803.25
2023-05-17T16:50:22.898Z,98801.38
2023-05-17T16:52:28.186Z,98802.78
2023-05-17T16:54:33.873Z,98792.66
2023-05-17T16:56:38.934Z,98797.63
2023-05-17T16:58:46.871Z,98806.81
2023-05-17T17:00:52.101Z,98797.44
2023-05-17T17:02:56.915Z,98802.47
2023-05-17T17:05:01.875Z,98804.44
2023-05-17T17:07:07.005Z,98807.94
2023-05-17T17:09:12.399Z,98800.97
2023-05-17T17:11:17.080Z,98815.06
2023-05-17T17:13:21.977Z,98808.84
2023-05-17T17:15:29.726Z,98807.59
2023-05-17T17:17:34.589Z,98805.88
2023-05-17T17:19:39.606Z,98812.66
2023-05-17T17:21:44.526Z,98805.97
2023-05-17T17:23:49.369Z,98806.47
2023-05-17T17:25:54.439Z,98807.84
2023-05-17T17:27:59.084Z,98808.59
2023-05-17T17:30:03.839Z,98813.09
2023-05-17T17:32:11.761Z,98807.53
2023-05-17T17:34:16.604Z,98807.06
2023-05-17T17:36:21.374Z,98815.97
2023-05-17T17:38:26.400Z,98816.78
2023-05-17T17:40:31.355Z,98815.28
2023-05-17T17:42:36.864Z,98817.81
2023-05-17T17:44:41.566Z,98815.56
2023-05-17T17:46:46.336Z,98818.72
2023-05-17T17:48:55.972Z,98820.31
2023-05-17T17:51:01.955Z,98823.97
2023-05-17T17:53:06.657Z,98827.28
2023-05-17T17:55:13.411Z,98826.16
2023-05-17T17:57:19.114Z,98828.03
2023-05-17T17:59:23.828Z,98826.25
2023-05-17T18:01:29.760Z,98831.66
2023-05-17T18:03:35.721Z,98849.28
2023-05-17T18:05:43.215Z,98836.84
2023-05-17T18:07:47.995Z,98836.81
2023-05-17T18:09:52.753Z,98837.19
2023-05-17T18:11:57.499Z,98839.28
2023-05-17T18:14:02.633Z,98843.59
2023-05-17T18:16:08.041Z,98843.53
2023-05-17T18:18:12.758Z,98841.81
2023-05-17T18:20:17.716Z,98837.19
2023-05-17T18:22:25.048Z,98843.56
2023-05-17T18:24:30.368Z,98846.19
2023-05-17T18:26:35.056Z,98843.81
2023-05-17T18:28:42.901Z,98847.91
2023-05-17T18:30:47.861Z,98849.47
2023-05-17T18:32:52.599Z,98851.47
2023-05-17T18:34:57.641Z,98854.09
2023-05-17T18:37:02.424Z,98851.38
2023-05-17T18:39:09.798Z,98854.09
2023-05-17T18:41:14.593Z,98856.88
2023-05-17T18:43:19.302Z,98852.00
2023-05-17T18:45:24.112Z,98849.72
2023-05-17T18:47:28.977Z,98857.09
2023-05-17T18:49:33.744Z,98860.19
2023-05-17T18:51:38.434Z,98861.25
2023-05-17T18:53:43.205Z,98864.03
2023-05-17T18:55:50.587Z,98866.03
2023-05-17T18:57:55.616Z,98868.69
2023-05-17T19:00:00.491Z,98866.34
2023-05-17T19:02:05.204Z,98863.88
2023-05-17T19:04:10.059Z,98867.59
2023-05-17T19:06:14.836Z,98872.03
2023-05-17T19:08:19.537Z,98879.19
2023-05-17T19:10:24.248Z,98877.56
2023-05-17T19:12:31.644Z,98889.19
2023-05-17T19:14:38.538Z,98876.16
2023-05-17T19:16:43.320Z,98880.69
2023-05-17T19:18:48.358Z,98872.97
2023-05-17T19:20:53.246Z,98880.00
2023-05-17T19:22:57.961Z,98883.69
2023-05-17T19:25:02.673Z,98884.53
2023-05-17T19:27:07.770Z,98893.94
2023-05-17T19:29:15.127Z,98896.53
2023-05-17T19:31:19.882Z,98900.00
2023-05-17T19:33:24.586Z,98907.16
2023-05-17T19:35:29.382Z,98900.31
2023-05-17T19:37:34.225Z,98906.38
2023-05-17T19:39:38.988Z,98911.84
2023-05-17T19:41:43.856Z,98911.19
2023-05-17T19:43:48.613Z,98915.59
2023-05-17T19:45:55.996Z,98914.81
2023-05-17T19:48:00.773Z,98921.88
2023-05-17T19:50:05.550Z,98913.41
2023-05-17T19:52:11.304Z,98913.44
2023-05-17T19:54:16.225Z,98919.75
2023-05-17T19:56:21.587Z,98930.38
2023-05-17T19:58:26.773Z,98925.13
2023-05-17T20:00:32.929Z,98927.03
2023-05-17T20:02:40.380Z,98919.38
2023-05-17T20:04:45.177Z,98922.06
2023-05-17T20:06:49.966Z,98917.19
2023-05-17T20:08:54.660Z,98923.44
2023-05-17T20:10:59.440Z,98923.19
2023-05-17T20:13:04.118Z,98925.09
2023-05-17T20:15:09.674Z,98921.81
2023-05-17T20:17:14.799Z,98924.22
2023-05-17T20:19:22.360Z,98927.72
2023-05-17T20:21:27.072Z,98927.09
2023-05-17T20:23:31.871Z,98928.47
2023-05-17T20:25:39.988Z,98926.00
2023-05-17T20:27:44.700Z,98933.16
2023-05-17T20:29:49.424Z,98935.91
2023-05-17T20:31:54.489Z,98940.59
2023-05-17T20:33:59.238Z,98934.81
2023-05-17T20:36:07.125Z,98936.66
2023-05-17T20:38:11.790Z,98942.78
2023-05-17T20:40:16.724Z,98940.16
2023-05-17T20:42:22.630Z,98939.19
2023-05-17T20:44:27.608Z,98934.16
2023-05-17T20:46:32.705Z,98939.56
2023-05-17T20:48:37.583Z,98946.69
2023-05-17T20:50:42.276Z,98948.50
2023-05-17T20:52:49.955Z,98953.00
2023-05-17T20:54:54.733Z,98952.44
2023-05-17T20:57:00.053Z,98944.03
2023-05-17T20:59:04.756Z,98950.31
2023-05-17T21:01:10.363Z,98955.53
2023-05-17T21:03:15.177Z,98957.41
2023-05-17T21:05:19.977Z,98956.78
2023-05-17T21:07:26.609Z,98957.97
2023-05-17T21:09:35.022Z,98959.25
2023-05-17T21:11:41.162Z,98956.91
2023-05-17T21:13:45.922Z,98958.78
2023-05-17T21:15:50.636Z,98954.63
2023-05-17T21:17:55.750Z,98956.53
2023-05-17T21:20:00.459Z,98955.88
2023-05-17T21:22:05.232Z,98958.78
2023-05-17T21:24:10.642Z,98957.09
2023-05-17T21:26:18.046Z,98959.72
2023-05-17T21:28:22.768Z,98962.44
2023-05-17T21:30:27.591Z,98960.66
2023-05-17T21:32:32.444Z,98966.91
2023-05-17T21:34:38.709Z,98964.31
2023-05-17T21:36:43.364Z,98962.78
2023-05-17T21:38:48.134Z,98967.13
2023-05-17T21:40:53.297Z,98956.78
2023-05-17T21:43:00.620Z,98955.13
2023-05-17T21:45:05.454Z,98962.00
2023-05-17T21:47:10.538Z,98965.59
2023-05-17T21:49:15.287Z,98960.28
2023-05-17T21:51:20.037Z,98961.91
2023-05-17T21:53:24.690Z,98966.25
2023-05-17T21:55:36.556Z,98962.84
2023-05-17T21:57:50.902Z,98962.03
2023-05-17T21:59:58.399Z,98963.00
2023-05-17T22:02:03.363Z,98961.25
2023-05-17T22:04:09.405Z,98968.44
2023-05-17T22:06:14.134Z,98960.66
2023-05-17T22:08:18.871Z,98959.03
2023-05-17T22:10:24.534Z,98960.09
2023-05-17T22:12:29.401Z,98959.31
2023-05-17T22:14:35.560Z,98957.72
2023-05-17T22:16:43.309Z,98958.69
2023-05-17T22:18:48.163Z,98959.53
2023-05-17T22:20:53.903Z,98956.91
2023-05-17T22:22:59.814Z,98956.06
2023-05-17T22:25:04.522Z,98956.88
2023-05-17T22:27:09.225Z,98955.19
2023-05-17T22:29:13.897Z,98957.72
2023-05-17T22:31:18.750Z,98957.72
2023-05-17T22:33:26.092Z,98954.31
2023-05-17T22:35:30.828Z,98957.78
2023-05-17T22:37:35.770Z,98960.69
2023-05-17T22:39:41.088Z,98959.00
2023-05-17T22:41:45.865Z,98968.59
2023-05-17T22:43:50.649Z,98967.94
2023-05-17T22:45:59.990Z,98965.34
2023-05-17T22:48:05.889Z,98966.31
2023-05-17T22:50:15.921Z,98962.84
2023-05-17T22:52:20.713Z,98962.78
2023-05-17T22:54:26.848Z,98973.31
2023-05-17T22:56:31.563Z,98964.72
2023-05-17T22:58:36.306Z,98962.97
2023-05-17T23:00:40.980Z,98964.91
2023-05-17T23:02:45.812Z,98973.81
2023-05-17T23:04:50.482Z,98972.16
2023-05-17T23:07:02.518Z,98971.38
2023-05-17T23:09:07.468Z,98971.47
2023-05-17T23:11:12.281Z,98969.75
2023-05-17T23:13:18.047Z,98972.53
2023-05-17T23:15:23.100Z,98970.16
2023-05-17T23:17:32.531Z,98970.03
2023-05-17T23:19:37.400Z,98964.84
2023-05-17T23:21:42.305Z,98966.59
2023-05-17T23:23:50.182Z,98965.31
2023-05-17T23:25:56.865Z,98970.56
2023-05-17T23:28:04.761Z,98962.94
2023-05-17T23:30:10.365Z,98963.78
2023-05-17T23:32:15.223Z,98960.41
2023-05-17T23:34:20.102Z,98958.75
2023-05-17T23:36:25.482Z,98962.28
2023-05-17T23:38:33.725Z,98962.28
2023-05-17T23:40:44.496Z,98959.72
2023-05-17T23:42:49.174Z,98962.31
2023-05-17T23:45:04.538Z,98964.16
2023-05-17T23:47:10.727Z,98963.44
2023-05-17T23:49:16.758Z,98964.38
2023-05-17T23:51:22.224Z,98967.09
2023-05-17T23:53:28.305Z,98958.44
2023-05-17T23:55:33.661Z,98959.34
2023-05-17T23:57:42.894Z,98955.88
2023-05-17T23:59:47.744Z,98958.56
